sensor_id;sensor_type;location;lat;lon;timestamp;pressure;altitude;pressure_sealevel;temperature;humidity
28008;BME280;15333;50.010;20.020;2023-02-19T00:02:28;98494.78;;;6.67;100.00
28008;BME280;15333;50.010;20.020;2023-02-19T00:05:29;98493.25;;;6.63;100.00
28008;BME280;15333;50.010;20.020;2023-02-19T00:08:31;98493.09;;;6.52;100.00
28008;BME280;15333;50.010;20.020;2023-02-19T00:11:34;98479.44;;;6.44;100.00
28008;BME280;15333;50.010;20.020;2023-02-19T00:14:38;98484.19;;;6.39;100.00
28008;BME280;15333;50.010;20.020;2023-02-19T00:17:38;98467.66;;;6.34;100.00
28008;BME280;15333;50.010;20.020;2023-02-19T00:20:39;98463.50;;;6.30;100.00
28008;BME280;15333;50.010;20.020;2023-02-19T00:23:40;98461.22;;;6.38;100.00
28008;BME280;15333;50.010;20.020;2023-02-19T00:26:43;98459.50;;;6.37;100.00
28008;BME280;15333;50.010;20.020;2023-02-19T00:29:44;98477.91;;;6.40;100.00
28008;BME280;15333;50.010;20.020;2023-02-19T00:32:49;98488.25;;;6.45;100.00
28008;BME280;15333;50.010;20.020;2023-02-19T00:35:50;98482.28;;;6.41;100.00
28008;BME280;15333;50.010;20.020;2023-02-19T00:38:51;98474.03;;;6.46;100.00
28008;BME280;15333;50.010;20.020;2023-02-19T00:41:52;98473.56;;;6.39;100.00
28008;BME280;15333;50.010;20.020;2023-02-19T00:44:53;98470.91;;;6.39;100.00
28008;BME280;15333;50.010;20.020;2023-02-19T00:47:54;98454.19;;;6.37;100.00
28008;BME280;15333;50.010;20.020;2023-02-19T00:50:55;98453.06;;;6.27;100.00
28008;BME280;15333;50.010;20.020;2023-02-19T00:53:56;98458.78;;;6.21;100.00
28008;BME280;15333;50.010;20.020;2023-02-19T00:56:58;98455.34;;;6.19;100.00
28008;BME280;15333;50.010;20.020;2023-02-19T01:12:44;98448.38;;;6.04;100.00
28008;BME280;15333;50.010;20.020;2023-02-19T01:15:45;98451.22;;;6.01;100.00
28008;BME280;15333;50.010;20.020;2023-02-19T01:18:47;98449.09;;;6.06;100.00
28008;BME280;15333;50.010;20.020;2023-02-19T01:21:48;98439.34;;;6.06;100.00
28008;BME280;15333;50.010;20.020;2023-02-19T01:24:49;98447.53;;;6.03;100.00
28008;BME280;15333;50.010;20.020;2023-02-19T01:27:50;98446.84;;;6.00;100.00
28008;BME280;15333;50.010;20.020;2023-02-19T01:30:51;98447.59;;;6.02;100.00
28008;BME280;15333;50.010;20.020;2023-02-19T01:33:54;98442.22;;;6.03;100.00
28008;BME280;15333;50.010;20.020;2023-02-19T01:36:56;98443.16;;;6.02;100.00
28008;BME280;15333;50.010;20.020;2023-02-19T01:39:57;98445.72;;;6.04;100.00
28008;BME280;15333;50.010;20.020;2023-02-19T01:42:58;98441.13;;;6.06;100.00
28008;BME280;15333;50.010;20.020;2023-02-19T01:45:59;98449.19;;;6.04;100.00
28008;BME280;15333;50.010;20.020;2023-02-19T01:49:05;98443.78;;;6.06;100.00
28008;BME280;15333;50.010;20.020;2023-02-19T01:52:13;98443.72;;;6.07;100.00
28008;BME280;15333;50.010;20.020;2023-02-19T01:55:15;98435.09;;;6.04;100.00
28008;BME280;15333;50.010;20.020;2023-02-19T01:58:16;98431.66;;;6.02;100.00
28008;BME280;15333;50.010;20.020;2023-02-19T02:01:17;98434.81;;;5.94;100.00
28008;BME280;15333;50.010;20.020;2023-02-19T02:04:18;98428.81;;;5.90;100.00
28008;BME280;15333;50.010;20.020;2023-02-19T02:07:19;98428.81;;;5.90;100.00
28008;BME280;15333;50.010;20.020;2023-02-19T02:10:40;98420.13;;;5.88;100.00
28008;BME280;15333;50.010;20.020;2023-02-19T02:13:43;98423.72;;;5.87;100.00
28008;BME280;15333;50.010;20.020;2023-02-19T02:23:24;98435.84;;;5.92;100.00
28008;BME280;15333;50.010;20.020;2023-02-19T02:27:24;98440.75;;;5.98;100.00
28008;BME280;15333;50.010;20.020;2023-02-19T02:33:43;98435.56;;;5.96;100.00
28008;BME280;15333;50.010;20.020;2023-02-19T02:36:50;98437.16;;;5.99;100.00
28008;BME280;15333;50.010;20.020;2023-02-19T02:39:53;98437.94;;;6.01;100.00
28008;BME280;15333;50.010;20.020;2023-02-19T02:42:58;98431.13;;;5.97;100.00
28008;BME280;15333;50.010;20.020;2023-02-19T02:46:00;98430.91;;;6.00;100.00
28008;BME280;15333;50.010;20.020;2023-02-19T02:49:11;98425.03;;;5.95;100.00
28008;BME280;15333;50.010;20.020;2023-02-19T02:52:14;98418.00;;;5.94;100.00
28008;BME280;15333;50.010;20.020;2023-02-19T02:55:41;98424.19;;;5.94;100.00
28008;BME280;15333;50.010;20.020;2023-02-19T02:58:45;98421.69;;;5.91;100.00
28008;BME280;15333;50.010;20.020;2023-02-19T03:01:52;98425.91;;;5.95;100.00
28008;BME280;15333;50.010;20.020;2023-02-19T03:05:20;98418.00;;;5.94;100.00
28008;BME280;15333;50.010;20.020;2023-02-19T03:08:43;98410.03;;;5.94;100.00
28008;BME280;15333;50.010;20.020;2023-02-19T03:11:48;98399.97;;;5.99;100.00
28008;BME280;15333;50.010;20.020;2023-02-19T03:15:13;98400.19;;;5.96;100.00
28008;BME280;15333;50.010;20.020;2023-02-19T03:18:36;98407.38;;;5.94;100.00
28008;BME280;15333;50.010;20.020;2023-02-19T03:22:01;98407.38;;;5.94;100.00
28008;BME280;15333;50.010;20.020;2023-02-19T03:25:20;98405.69;;;5.93;100.00
28008;BME280;15333;50.010;20.020;2023-02-19T03:28:42;98402.06;;;5.94;100.00
28008;BME280;15333;50.010;20.020;2023-02-19T03:32:17;98396.69;;;5.95;100.00
28008;BME280;15333;50.010;20.020;2023-02-19T03:35:32;98394.66;;;5.99;100.00
28008;BME280;15333;50.010;20.020;2023-02-19T03:38:45;98382.53;;;5.95;100.00
28008;BME280;15333;50.010;20.020;2023-02-19T03:45:26;98371.06;;;5.94;100.00
28008;BME280;15333;50.010;20.020;2023-02-19T03:48:31;98359.59;;;5.94;100.00
28008;BME280;15333;50.010;20.020;2023-02-19T03:51:47;98366.59;;;5.95;100.00
28008;BME280;15333;50.010;20.020;2023-02-19T03:55:04;98370.22;;;5.94;100.00
28008;BME280;15333;50.010;20.020;2023-02-19T03:58:13;98366.38;;;5.98;100.00
28008;BME280;15333;50.010;20.020;2023-02-19T04:04:44;98361.47;;;5.92;100.00
28008;BME280;15333;50.010;20.020;2023-02-19T04:07:49;98368.72;;;5.89;100.00
28008;BME280;15333;50.010;20.020;2023-02-19T04:10:57;98371.25;;;5.91;100.00
28008;BME280;15333;50.010;20.020;2023-02-19T04:14:38;98363.19;;;5.93;100.00
28008;BME280;15333;50.010;20.020;2023-02-19T04:18:14;98366.78;;;5.92;100.00
28008;BME280;15333;50.010;20.020;2023-02-19T04:20:55;98356.38;;;5.88;100.00
28008;BME280;15333;50.010;20.020;2023-02-19T04:24:03;98355.53;;;5.88;100.00
28008;BME280;15333;50.010;20.020;2023-02-19T04:27:07;98348.56;;;6.00;100.00
28008;BME280;15333;50.010;20.020;2023-02-19T04:30:10;98350.66;;;5.95;100.00
28008;BME280;15333;50.010;20.020;2023-02-19T04:33:11;98344.19;;;5.84;100.00
28008;BME280;15333;50.010;20.020;2023-02-19T04:36:12;98342.31;;;5.86;100.00
28008;BME280;15333;50.010;20.020;2023-02-19T04:39:13;98326.47;;;5.85;100.00
28008;BME280;15333;50.010;20.020;2023-02-19T04:42:14;98314.44;;;5.79;100.00
28008;BME280;15333;50.010;20.020;2023-02-19T04:45:15;98329.03;;;5.86;100.00
28008;BME280;15333;50.010;20.020;2023-02-19T04:48:16;98330.81;;;5.86;100.00
28008;BME280;15333;50.010;20.020;2023-02-19T04:51:17;98319.56;;;5.82;100.00
28008;BME280;15333;50.010;20.020;2023-02-19T04:54:18;98328.34;;;5.83;100.00
28008;BME280;15333;50.010;20.020;2023-02-19T04:57:19;98332.63;;;5.85;100.00
28008;BME280;15333;50.010;20.020;2023-02-19T05:00:20;98336.09;;;5.87;100.00
28008;BME280;15333;50.010;20.020;2023-02-19T05:03:21;98333.56;;;5.84;100.00
28008;BME280;15333;50.010;20.020;2023-02-19T05:06:22;98335.28;;;5.85;100.00
28008;BME280;15333;50.010;20.020;2023-02-19T05:09:22;98331.88;;;5.83;100.00
28008;BME280;15333;50.010;20.020;2023-02-19T05:12:24;98326.38;;;5.86;100.00
28008;BME280;15333;50.010;20.020;2023-02-19T05:15:25;98322.00;;;5.85;100.00
28008;BME280;15333;50.010;20.020;2023-02-19T05:18:27;98318.25;;;5.89;100.00
28008;BME280;15333;50.010;20.020;2023-02-19T05:21:28;98323.91;;;5.83;100.00
28008;BME280;15333;50.010;20.020;2023-02-19T05:24:29;98312.72;;;5.78;100.00
28008;BME280;15333;50.010;20.020;2023-02-19T05:27:31;98319.94;;;5.76;100.00
28008;BME280;15333;50.010;20.020;2023-02-19T05:30:32;98308.38;;;5.77;100.00
28008;BME280;15333;50.010;20.020;2023-02-19T05:33:33;98296.78;;;5.78;100.00
28008;BME280;15333;50.010;20.020;2023-02-19T05:36:34;98294.22;;;5.77;100.00
28008;BME280;15333;50.010;20.020;2023-02-19T05:39:36;98297.19;;;5.72;100.00
28008;BME280;15333;50.010;20.020;2023-02-19T05:42:37;98284.88;;;5.71;100.00
28008;BME280;15333;50.010;20.020;2023-02-19T05:45:39;98292.06;;;5.69;100.00
28008;BME280;15333;50.010;20.020;2023-02-19T05:48:40;98285.63;;;5.73;100.00
28008;BME280;15333;50.010;20.020;2023-02-19T05:51:41;98263.44;;;5.74;100.00
28008;BME280;15333;50.010;20.020;2023-02-19T05:54:42;98276.03;;;5.71;100.00
28008;BME280;15333;50.010;20.020;2023-02-19T05:57:45;98263.72;;;5.70;100.00
28008;BME280;15333;50.010;20.020;2023-02-19T06:00:47;98272.34;;;5.73;100.00
28008;BME280;15333;50.010;20.020;2023-02-19T06:03:48;98269.03;;;5.70;100.00
28008;BME280;15333;50.010;20.020;2023-02-19T06:06:49;98280.59;;;5.69;100.00
28008;BME280;15333;50.010;20.020;2023-02-19T06:09:50;98286.97;;;5.66;100.00
28008;BME280;15333;50.010;20.020;2023-02-19T06:12:52;98279.78;;;5.68;100.00
28008;BME280;15333;50.010;20.020;2023-02-19T06:15:53;98284.47;;;5.77;100.00
28008;BME280;15333;50.010;20.020;2023-02-19T06:18:54;98268.75;;;5.74;100.00
28008;BME280;15333;50.010;20.020;2023-02-19T06:21:54;98267.50;;;5.80;100.00
28008;BME280;15333;50.010;20.020;2023-02-19T06:24:56;98254.53;;;5.75;100.00
28008;BME280;15333;50.010;20.020;2023-02-19T06:27:56;98253.75;;;5.87;100.00
28008;BME280;15333;50.010;20.020;2023-02-19T06:30:58;98252.50;;;5.93;100.00
28008;BME280;15333;50.010;20.020;2023-02-19T06:34:03;98260.38;;;5.95;100.00
28008;BME280;15333;50.010;20.020;2023-02-19T06:37:04;98256.97;;;5.93;100.00
28008;BME280;15333;50.010;20.020;2023-02-19T06:40:05;98254.75;;;5.99;100.00
28008;BME280;15333;50.010;20.020;2023-02-19T06:43:06;98261.00;;;5.98;100.00
28008;BME280;15333;50.010;20.020;2023-02-19T06:46:10;98271.44;;;6.01;100.00
28008;BME280;15333;50.010;20.020;2023-02-19T06:49:11;98264.34;;;6.02;100.00
28008;BME280;15333;50.010;20.020;2023-02-19T06:52:12;98265.09;;;6.04;100.00
28008;BME280;15333;50.010;20.020;2023-02-19T06:55:13;98269.88;;;6.11;100.00
28008;BME280;15333;50.010;20.020;2023-02-19T06:58:14;98270.19;;;6.07;100.00
28008;BME280;15333;50.010;20.020;2023-02-19T07:01:15;98275.72;;;6.04;100.00
28008;BME280;15333;50.010;20.020;2023-02-19T07:04:16;98277.03;;;6.11;100.00
28008;BME280;15333;50.010;20.020;2023-02-19T07:07:17;98275.75;;;6.16;100.00
28008;BME280;15333;50.010;20.020;2023-02-19T07:10:18;98275.09;;;6.13;100.00
28008;BME280;15333;50.010;20.020;2023-02-19T07:13:19;98277.03;;;6.11;100.00
28008;BME280;15333;50.010;20.020;2023-02-19T07:16:20;98272.59;;;6.24;100.00
28008;BME280;15333;50.010;20.020;2023-02-19T07:19:22;98265.75;;;6.20;100.00
28008;BME280;15333;50.010;20.020;2023-02-19T07:22:22;98271.75;;;6.23;100.00
28008;BME280;15333;50.010;20.020;2023-02-19T07:25:23;98260.25;;;6.23;100.00
28008;BME280;15333;50.010;20.020;2023-02-19T07:28:24;98257.94;;;6.31;100.00
28008;BME280;15333;50.010;20.020;2023-02-19T07:31:26;98261.75;;;6.27;100.00
28008;BME280;15333;50.010;20.020;2023-02-19T07:34:27;98252.81;;;6.28;100.00
28008;BME280;15333;50.010;20.020;2023-02-19T07:37:28;98256.25;;;6.30;100.00
28008;BME280;15333;50.010;20.020;2023-02-19T07:40:28;98264.75;;;6.35;100.00
28008;BME280;15333;50.010;20.020;2023-02-19T07:43:32;98262.09;;;6.35;100.00
28008;BME280;15333;50.010;20.020;2023-02-19T07:46:33;98267.00;;;6.41;100.00
28008;BME280;15333;50.010;20.020;2023-02-19T07:49:34;98267.22;;;6.38;100.00
28008;BME280;15333;50.010;20.020;2023-02-19T07:52:35;98262.84;;;6.37;100.00
28008;BME280;15333;50.010;20.020;2023-02-19T07:55:36;98258.41;;;6.50;100.00
28008;BME280;15333;50.010;20.020;2023-02-19T07:58:37;98256.59;;;6.63;100.00
28008;BME280;15333;50.010;20.020;2023-02-19T08:01:38;98244.59;;;6.71;100.00
28008;BME280;15333;50.010;20.020;2023-02-19T08:04:58;98247.59;;;6.79;100.00
28008;BME280;15333;50.010;20.020;2023-02-19T08:07:59;98248.00;;;6.85;100.00
28008;BME280;15333;50.010;20.020;2023-02-19T08:11:01;98239.59;;;6.91;100.00
28008;BME280;15333;50.010;20.020;2023-02-19T08:14:25;98243.63;;;6.97;100.00
28008;BME280;15333;50.010;20.020;2023-02-19T08:17:26;98228.88;;;6.93;100.00
28008;BME280;15333;50.010;20.020;2023-02-19T08:20:29;98234.59;;;7.12;100.00
28008;BME280;15333;50.010;20.020;2023-02-19T08:23:30;98232.16;;;7.09;100.00
28008;BME280;15333;50.010;20.020;2023-02-19T08:26:32;98225.22;;;7.19;100.00
28008;BME280;15333;50.010;20.020;2023-02-19T08:29:33;98230.31;;;7.22;100.00
28008;BME280;15333;50.010;20.020;2023-02-19T08:32:34;98229.69;;;7.19;100.00
28008;BME280;15333;50.010;20.020;2023-02-19T08:35:35;98232.63;;;7.39;100.00
28008;BME280;15333;50.010;20.020;2023-02-19T08:38:37;98235.19;;;7.41;100.00
28008;BME280;15333;50.010;20.020;2023-02-19T08:41:38;98229.41;;;7.47;100.00
28008;BME280;15333;50.010;20.020;2023-02-19T08:44:39;98233.75;;;7.24;100.00
28008;BME280;15333;50.010;20.020;2023-02-19T08:47:39;98231.19;;;7.23;100.00
28008;BME280;15333;50.010;20.020;2023-02-19T08:50:41;98233.31;;;7.30;100.00
28008;BME280;15333;50.010;20.020;2023-02-19T08:53:41;98233.06;;;7.33;100.00
28008;BME280;15333;50.010;20.020;2023-02-19T08:56:43;98237.22;;;7.37;100.00
28008;BME280;15333;50.010;20.020;2023-02-19T08:59:43;98237.97;;;7.27;100.00
28008;BME280;15333;50.010;20.020;2023-02-19T09:02:44;98226.78;;;7.34;100.00
28008;BME280;15333;50.010;20.020;2023-02-19T09:05:45;98227.53;;;7.36;100.00
28008;BME280;15333;50.010;20.020;2023-02-19T09:08:46;98212.94;;;7.42;100.00
28008;BME280;15333;50.010;20.020;2023-02-19T09:11:47;98218.34;;;7.40;100.00
28008;BME280;15333;50.010;20.020;2023-02-19T09:14:49;98228.19;;;7.27;100.00
28008;BME280;15333;50.010;20.020;2023-02-19T09:17:52;98224.59;;;7.16;100.00
28008;BME280;15333;50.010;20.020;2023-02-19T09:20:53;98233.53;;;7.15;100.00
28008;BME280;15333;50.010;20.020;2023-02-19T09:23:54;98232.03;;;7.23;100.00
28008;BME280;15333;50.010;20.020;2023-02-19T09:26:55;98229.44;;;7.34;100.00
28008;BME280;15333;50.010;20.020;2023-02-19T09:29:56;98212.81;;;7.43;100.00
28008;BME280;15333;50.010;20.020;2023-02-19T09:32:57;98223.69;;;7.40;100.00
28008;BME280;15333;50.010;20.020;2023-02-19T09:35:58;98227.75;;;7.33;100.00
28008;BME280;15333;50.010;20.020;2023-02-19T09:39:00;98229.25;;;7.25;100.00
28008;BME280;15333;50.010;20.020;2023-02-19T09:42:20;98235.13;;;7.17;100.00
28008;BME280;15333;50.010;20.020;2023-02-19T09:45:24;98235.22;;;7.16;100.00
28008;BME280;15333;50.010;20.020;2023-02-19T09:48:25;98233.44;;;7.16;100.00
28008;BME280;15333;50.010;20.020;2023-02-19T09:51:27;98238.84;;;7.15;100.00
28008;BME280;15333;50.010;20.020;2023-02-19T09:54:29;98237.03;;;7.15;100.00
28008;BME280;15333;50.010;20.020;2023-02-19T09:57:33;98239.91;;;7.12;100.00
28008;BME280;15333;50.010;20.020;2023-02-19T10:00:36;98236.31;;;7.00;100.00
28008;BME280;15333;50.010;20.020;2023-02-19T10:03:38;98259.69;;;6.83;100.00
28008;BME280;15333;50.010;20.020;2023-02-19T10:06:41;98276.69;;;6.55;100.00
28008;BME280;15333;50.010;20.020;2023-02-19T10:10:04;98259.66;;;6.32;100.00
28008;BME280;15333;50.010;20.020;2023-02-19T10:13:31;98262.91;;;6.23;100.00
28008;BME280;15333;50.010;20.020;2023-02-19T10:16:33;98259.16;;;6.13;100.00
28008;BME280;15333;50.010;20.020;2023-02-19T10:19:34;98270.00;;;6.10;100.00
28008;BME280;15333;50.010;20.020;2023-02-19T10:22:36;98270.41;;;6.04;100.00
28008;BME280;15333;50.010;20.020;2023-02-19T10:25:42;98270.19;;;6.07;100.00
28008;BME280;15333;50.010;20.020;2023-02-19T10:28:44;98280.63;;;6.10;100.00
28008;BME280;15333;50.010;20.020;2023-02-19T10:31:45;98277.19;;;6.08;100.00
28008;BME280;15333;50.010;20.020;2023-02-19T10:34:46;98276.16;;;6.10;100.00
28008;BME280;15333;50.010;20.020;2023-02-19T10:37:48;98285.53;;;6.16;100.00
28008;BME280;15333;50.010;20.020;2023-02-19T10:44:06;98295.84;;;6.20;100.00
28008;BME280;15333;50.010;20.020;2023-02-19T10:47:20;98290.84;;;6.16;100.00
28008;BME280;15333;50.010;20.020;2023-02-19T10:50:28;98302.22;;;6.18;100.00
28008;BME280;15333;50.010;20.020;2023-02-19T10:53:42;98305.06;;;6.15;100.00
28008;BME280;15333;50.010;20.020;2023-02-19T10:56:43;98307.38;;;6.07;100.00
28008;BME280;15333;50.010;20.020;2023-02-19T10:59:52;98316.75;;;5.43;100.00
28008;BME280;15333;50.010;20.020;2023-02-19T11:03:15;98334.44;;;4.56;100.00
28008;BME280;15333;50.010;20.020;2023-02-19T11:06:24;98339.28;;;4.33;100.00
28008;BME280;15333;50.010;20.020;2023-02-19T11:09:41;98355.53;;;4.27;100.00
28008;BME280;15333;50.010;20.020;2023-02-19T11:12:47;98354.00;;;4.23;100.00
28008;BME280;15333;50.010;20.020;2023-02-19T11:15:53;98366.03;;;4.13;100.00
28008;BME280;15333;50.010;20.020;2023-02-19T11:18:55;98378.53;;;4.11;100.00
28008;BME280;15333;50.010;20.020;2023-02-19T11:21:58;98384.59;;;4.13;100.00
28008;BME280;15333;50.010;20.020;2023-02-19T11:25:14;98384.69;;;4.12;100.00
28008;BME280;15333;50.010;20.020;2023-02-19T11:28:31;98376.22;;;4.05;100.00
28008;BME280;15333;50.010;20.020;2023-02-19T11:31:32;98383.75;;;3.97;100.00
28008;BME280;15333;50.010;20.020;2023-02-19T11:34:35;98386.41;;;3.97;100.00
28008;BME280;15333;50.010;20.020;2023-02-19T11:37:52;98388.50;;;4.06;100.00
28008;BME280;15333;50.010;20.020;2023-02-19T11:41:21;98395.09;;;3.99;100.00
28008;BME280;15333;50.010;20.020;2023-02-19T11:54:17;98412.19;;;4.09;100.00
28008;BME280;15333;50.010;20.020;2023-02-19T12:00:35;98425.78;;;4.03;100.00
28008;BME280;15333;50.010;20.020;2023-02-19T12:17:09;98454.09;;;3.85;100.00
28008;BME280;15333;50.010;20.020;2023-02-19T12:30:52;98470.56;;;4.39;100.00
28008;BME280;15333;50.010;20.020;2023-02-19T12:34:13;98472.41;;;4.37;100.00
28008;BME280;15333;50.010;20.020;2023-02-19T12:37:28;98483.50;;;4.12;100.00
28008;BME280;15333;50.010;20.020;2023-02-19T12:40:49;98482.66;;;4.27;100.00
28008;BME280;15333;50.010;20.020;2023-02-19T12:44:21;98489.84;;;4.25;100.00
28008;BME280;15333;50.010;20.020;2023-02-19T12:47:26;98486.78;;;4.33;100.00
28008;BME280;15333;50.010;20.020;2023-02-19T12:50:29;98483.19;;;4.50;100.00
28008;BME280;15333;50.010;20.020;2023-02-19T12:53:55;98489.00;;;4.72;100.00
28008;BME280;15333;50.010;20.020;2023-02-19T12:57:03;98484.19;;;4.63;100.00
28008;BME280;15333;50.010;20.020;2023-02-19T13:00:34;98484.38;;;4.60;100.00
28008;BME280;15333;50.010;20.020;2023-02-19T13:07:06;98494.63;;;4.50;100.00
28008;BME280;15333;50.010;20.020;2023-02-19T13:10:35;98496.69;;;4.61;100.00
28008;BME280;15333;50.010;20.020;2023-02-19T13:14:00;98496.16;;;4.70;100.00
28008;BME280;15333;50.010;20.020;2023-02-19T13:20:28;98496.00;;;4.73;100.00
28008;BME280;15333;50.010;20.020;2023-02-19T13:23:32;98494.94;;;4.91;100.00
28008;BME280;15333;50.010;20.020;2023-02-19T13:27:07;98508.13;;;4.77;100.00
28008;BME280;15333;50.010;20.020;2023-02-19T13:34:04;98511.31;;;4.68;100.00
28008;BME280;15333;50.010;20.020;2023-02-19T13:37:10;98517.28;;;4.56;100.00
28008;BME280;15333;50.010;20.020;2023-02-19T13:40:35;98523.38;;;4.58;100.00
28008;BME280;15333;50.010;20.020;2023-02-19T13:43:37;98535.84;;;4.40;100.00
28008;BME280;15333;50.010;20.020;2023-02-19T13:46:41;98543.16;;;4.35;100.00
28008;BME280;15333;50.010;20.020;2023-02-19T13:49:47;98537.88;;;4.35;100.00
28008;BME280;15333;50.010;20.020;2023-02-19T13:52:49;98557.28;;;4.36;100.00
28008;BME280;15333;50.010;20.020;2023-02-19T13:55:51;98555.66;;;4.33;100.00
28008;BME280;15333;50.010;20.020;2023-02-19T14:06:02;98582.03;;;4.34;100.00
28008;BME280;15333;50.010;20.020;2023-02-19T14:09:02;98588.63;;;4.27;100.00
28008;BME280;15333;50.010;20.020;2023-02-19T14:12:04;98617.84;;;4.26;100.00
28008;BME280;15333;50.010;20.020;2023-02-19T14:21:41;98611.56;;;4.11;96.52
28008;BME280;15333;50.010;20.020;2023-02-19T14:24:43;98621.69;;;4.03;95.13
28008;BME280;15333;50.010;20.020;2023-02-19T14:27:44;98615.16;;;3.93;95.71
28008;BME280;15333;50.010;20.020;2023-02-19T14:30:50;98630.03;;;3.96;95.40
28008;BME280;15333;50.010;20.020;2023-02-19T14:33:54;98638.31;;;3.89;95.90
28008;BME280;15333;50.010;20.020;2023-02-19T14:36:57;98638.50;;;3.85;96.81
28008;BME280;15333;50.010;20.020;2023-02-19T14:39:59;98658.94;;;3.83;96.02
28008;BME280;15333;50.010;20.020;2023-02-19T14:43:01;98674.31;;;3.92;97.74
28008;BME280;15333;50.010;20.020;2023-02-19T14:46:19;98673.16;;;3.80;96.76
28008;BME280;15333;50.010;20.020;2023-02-19T14:52:45;98682.91;;;3.80;98.51
28008;BME280;15333;50.010;20.020;2023-02-19T14:55:48;98696.44;;;3.91;99.36
28008;BME280;15333;50.010;20.020;2023-02-19T14:59:20;98693.97;;;3.88;99.81
28008;BME280;15333;50.010;20.020;2023-02-19T15:02:21;98698.16;;;3.92;100.00
28008;BME280;15333;50.010;20.020;2023-02-19T15:05:36;98693.97;;;3.88;100.00
28008;BME280;15333;50.010;20.020;2023-02-19T15:08:41;98705.97;;;3.95;99.63
28008;BME280;15333;50.010;20.020;2023-02-19T15:11:43;98701.72;;;3.91;98.32
28008;BME280;15333;50.010;20.020;2023-02-19T15:14:45;98723.63;;;3.94;96.22
28008;BME280;15333;50.010;20.020;2023-02-19T15:17:47;98722.97;;;3.72;94.92
28008;BME280;15333;50.010;20.020;2023-02-19T15:20:50;98732.31;;;3.43;95.89
28008;BME280;15333;50.010;20.020;2023-02-19T15:23:54;98726.91;;;3.46;98.23
28008;BME280;15333;50.010;20.020;2023-02-19T15:26:56;98732.63;;;3.37;100.00
28008;BME280;15333;50.010;20.020;2023-02-19T15:29:57;98736.47;;;3.30;100.00
28008;BME280;15333;50.010;20.020;2023-02-19T15:32:59;98736.47;;;3.30;100.00
28008;BME280;15333;50.010;20.020;2023-02-19T15:36:03;98747.34;;;3.24;100.00
28008;BME280;15333;50.010;20.020;2023-02-19T15:39:05;98747.47;;;3.21;100.00
28008;BME280;15333;50.010;20.020;2023-02-19T15:42:09;98749.50;;;3.16;100.00
28008;BME280;15333;50.010;20.020;2023-02-19T15:45:22;98760.78;;;3.20;100.00
28008;BME280;15333;50.010;20.020;2023-02-19T15:48:30;98763.63;;;3.15;100.00
28008;BME280;15333;50.010;20.020;2023-02-19T15:51:40;98759.78;;;3.22;99.40
28008;BME280;15333;50.010;20.020;2023-02-19T15:58:01;98784.50;;;3.21;99.34
28008;BME280;15333;50.010;20.020;2023-02-19T16:01:28;98780.94;;;3.22;99.05
28008;BME280;15333;50.010;20.020;2023-02-19T16:04:29;98785.28;;;3.23;97.93
28008;BME280;15333;50.010;20.020;2023-02-19T16:07:30;98788.81;;;3.24;97.68
28008;BME280;15333;50.010;20.020;2023-02-19T16:10:31;98788.69;;;3.27;97.71
28008;BME280;15333;50.010;20.020;2023-02-19T16:13:33;98806.22;;;3.28;96.02
28008;BME280;15333;50.010;20.020;2023-02-19T16:16:37;98820.25;;;3.30;95.24
28008;BME280;15333;50.010;20.020;2023-02-19T16:19:53;98827.84;;;3.37;95.51
28008;BME280;15333;50.010;20.020;2023-02-19T16:23:01;98840.81;;;3.23;91.82
28008;BME280;15333;50.010;20.020;2023-02-19T16:26:03;98852.97;;;3.27;93.12
28008;BME280;15333;50.010;20.020;2023-02-19T16:29:25;98853.41;;;3.18;93.17
28008;BME280;15333;50.010;20.020;2023-02-19T16:32:27;98862.53;;;3.11;95.49
28008;BME280;15333;50.010;20.020;2023-02-19T16:35:38;98869.88;;;3.04;95.88
28008;BME280;15333;50.010;20.020;2023-02-19T16:38:39;98877.06;;;3.01;96.57
28008;BME280;15333;50.010;20.020;2023-02-19T16:44:47;98871.78;;;3.01;96.27
28008;BME280;15333;50.010;20.020;2023-02-19T16:47:48;98878.91;;;2.99;97.13
28008;BME280;15333;50.010;20.020;2023-02-19T16:50:51;98876.56;;;2.93;96.02
28008;BME280;15333;50.010;20.020;2023-02-19T16:53:51;98895.72;;;2.98;94.69
28008;BME280;15333;50.010;20.020;2023-02-19T16:56:53;98896.13;;;2.89;95.29
28008;BME280;15333;50.010;20.020;2023-02-19T16:59:53;98901.13;;;2.95;93.20
28008;BME280;15333;50.010;20.020;2023-02-19T17:02:58;98910.66;;;2.99;92.83
28008;BME280;15333;50.010;20.020;2023-02-19T17:06:01;98923.63;;;3.05;92.22
28008;BME280;15333;50.010;20.020;2023-02-19T17:09:03;98942.13;;;3.05;89.92
28008;BME280;15333;50.010;20.020;2023-02-19T17:12:10;98933.00;;;3.12;89.21
28008;BME280;15333;50.010;20.020;2023-02-19T17:15:11;98931.28;;;3.11;88.62
28008;BME280;15333;50.010;20.020;2023-02-19T17:18:12;98949.97;;;3.06;88.54
28008;BME280;15333;50.010;20.020;2023-02-19T17:24:20;98959.56;;;3.09;86.89
28008;BME280;15333;50.010;20.020;2023-02-19T17:27:22;98970.41;;;3.03;87.05
28008;BME280;15333;50.010;20.020;2023-02-19T17:30:30;98973.97;;;3.02;87.57
28008;BME280;15333;50.010;20.020;2023-02-19T17:33:32;98975.44;;;3.09;87.12
28008;BME280;15333;50.010;20.020;2023-02-19T17:36:33;98995.66;;;3.10;84.98
28008;BME280;15333;50.010;20.020;2023-02-19T17:39:34;98984.16;;;3.11;84.57
28008;BME280;15333;50.010;20.020;2023-02-19T17:42:35;98998.31;;;3.10;83.95
28008;BME280;15333;50.010;20.020;2023-02-19T17:45:36;99010.59;;;3.11;82.15
28008;BME280;15333;50.010;20.020;2023-02-19T17:48:37;98998.25;;;3.11;82.88
28008;BME280;15333;50.010;20.020;2023-02-19T17:51:38;99001.88;;;3.09;82.80
28008;BME280;15333;50.010;20.020;2023-02-19T17:54:38;99013.31;;;3.09;82.43
28008;BME280;15333;50.010;20.020;2023-02-19T17:57:40;99010.72;;;3.08;81.75
28008;BME280;15333;50.010;20.020;2023-02-19T18:00:41;99015.91;;;3.11;81.30